createdAt,value
2017-09-27T00:00:44.270Z,0
2017-09-27T00:01:43.925Z,0
2017-09-27T00:02:43.919Z,0
2017-09-27T00:03:44.193Z,0
2017-09-27T00:04:43.870Z,0
2017-09-27T00:05:43.849Z,0
2017-09-27T00:06:43.516Z,0
2017-09-27T00:07:43.518Z,0
2017-09-27T00:08:43.479Z,0
2017-09-27T00:09:43.559Z,0
2017-09-27T00:10:43.770Z,0
2017-09-27T00:11:43.751Z,0
2017-09-27T00:12:43.409Z,0
2017-09-27T00:13:44.010Z,0
2017-09-27T00:14:43.379Z,0
2017-09-27T00:15:43.419Z,0
2017-09-27T00:16:43.973Z,0
2017-09-27T00:17:43.642Z,0
2017-09-27T00:18:43.930Z,0
2017-09-27T00:19:43.300Z,0
2017-09-27T00:20:43.569Z,0
2017-09-27T00:21:43.610Z,0
2017-09-27T00:22:43.247Z,0
2017-09-27T00:23:43.572Z,0
2017-09-27T00:24:43.193Z,0
2017-09-27T00:25:43.630Z,0
2017-09-27T00:26:43.492Z,0
2017-09-27T00:27:43.198Z,0
2017-09-27T00:28:43.131Z,0
2017-09-27T00:29:43.479Z,0
2017-09-27T00:30:43.462Z,0
2017-09-27T00:31:43.715Z,0
2017-09-27T00:32:43.721Z,0
2017-09-27T00:33:43.053Z,0
2017-09-27T00:34:43.658Z,0
2017-09-27T00:35:43.742Z,0
2017-09-27T00:36:43.628Z,0
2017-09-27T00:37:43.649Z,0
2017-09-27T00:38:43.262Z,0
2017-09-27T00:39:43.356Z,0
2017-09-27T00:40:42.972Z,0
2017-09-27T00:41:43.271Z,0
2017-09-27T00:42:43.270Z,0
2017-09-27T00:43:43.480Z,0
2017-09-27T00:44:43.512Z,0
2017-09-27T00:45:43.163Z,0
2017-09-27T00:46:43.146Z,0
2017-09-27T00:47:43.511Z,0
2017-09-27T00:48:43.131Z,0
2017-09-27T00:49:43.119Z,0
2017-09-27T00:50:43.376Z,0
2017-09-27T00:51:43.055Z,0
2017-09-27T00:52:43.330Z,0
2017-09-27T00:53:43.088Z,0
2017-09-27T00:54:43.371Z,0
2017-09-27T00:55:43.320Z,0
2017-09-27T00:56:43.291Z,0
2017-09-27T00:57:43.240Z,0
2017-09-27T00:58:43.225Z,0
2017-09-27T00:59:42.897Z,0
2017-09-27T01:00:42.890Z,0
2017-09-27T01:01:43.163Z,0
2017-09-27T01:02:43.152Z,0
2017-09-27T01:03:43.144Z,0
2017-09-27T01:04:42.837Z,0
2017-09-27T01:05:43.192Z,0
2017-09-27T01:06:43.111Z,0
2017-09-27T01:07:42.751Z,0
2017-09-27T01:08:42.421Z,0
2017-09-27T01:09:43.062Z,0
2017-09-27T01:10:42.701Z,0
2017-09-27T01:11:42.675Z,0
2017-09-27T01:12:42.702Z,0
2017-09-27T01:13:42.647Z,0
2017-09-27T01:14:42.639Z,0
2017-09-27T01:15:42.611Z,0
2017-09-27T01:16:42.614Z,0
2017-09-27T01:17:42.656Z,0
2017-09-27T01:18:42.573Z,0
2017-09-27T01:19:42.529Z,0
2017-09-27T01:20:42.835Z,0
2017-09-27T01:21:42.818Z,0
2017-09-27T01:22:42.166Z,0
2017-09-27T01:23:41.848Z,0
2017-09-27T01:24:42.772Z,0
2017-09-27T01:25:42.121Z,0
2017-09-27T01:26:42.118Z,0
2017-09-27T01:27:42.528Z,0
2017-09-27T01:28:41.755Z,0
2017-09-27T01:29:42.359Z,0
2017-09-27T01:30:42.699Z,0
2017-09-27T01:31:42.645Z,0
2017-09-27T01:32:41.996Z,0
2017-09-27T01:33:42.310Z,0
2017-09-27T01:34:42.587Z,0
2017-09-27T01:35:42.605Z,0
2017-09-27T01:36:41.917Z,0
2017-09-27T01:37:42.221Z,0
2017-09-27T01:38:42.213Z,0
2017-09-27T01:39:41.867Z,0
2017-09-27T01:40:42.176Z,0
2017-09-27T01:41:42.153Z,0
2017-09-27T01:42:41.516Z,0
2017-09-27T01:43:41.790Z,0
2017-09-27T01:44:42.093Z,0
2017-09-27T01:45:42.380Z,0
2017-09-27T01:46:42.080Z,0
2017-09-27T01:47:42.042Z,0
2017-09-27T01:48:42.422Z,0
2017-09-27T01:49:42.331Z,0
2017-09-27T01:50:41.683Z,0
2017-09-27T01:51:41.961Z,0
2017-09-27T01:52:42.300Z,0
2017-09-27T01:53:42.251Z,0
2017-09-27T01:54:42.230Z,0
2017-09-27T01:55:41.915Z,0
2017-09-27T01:56:41.884Z,0
2017-09-27T01:57:41.564Z,0
2017-09-27T01:58:42.190Z,0
2017-09-27T01:59:41.851Z,0
2017-09-27T02:00:42.142Z,0
2017-09-27T02:01:41.801Z,0
2017-09-27T02:02:41.788Z,0
2017-09-27T02:03:42.075Z,0
2017-09-27T02:04:41.428Z,0
2017-09-27T02:05:42.035Z,0
2017-09-27T02:06:41.697Z,0
2017-09-27T02:07:41.680Z,0
2017-09-27T02:08:41.981Z,0
2017-09-27T02:09:41.342Z,0
2017-09-27T02:10:41.632Z,0
2017-09-27T02:11:41.610Z,0
2017-09-27T02:12:41.954Z,0
2017-09-27T02:13:40.971Z,0
2017-09-27T02:14:41.880Z,0
2017-09-27T02:15:41.232Z,0
2017-09-27T02:16:41.223Z,0
2017-09-27T02:17:41.511Z,0
2017-09-27T02:18:41.492Z,0
2017-09-27T02:19:41.474Z,0
2017-09-27T02:20:41.140Z,0
2017-09-27T02:21:41.441Z,0
2017-09-27T02:22:41.407Z,0
2017-09-27T02:23:40.773Z,0
2017-09-27T02:24:41.391Z,0
2017-09-27T02:25:41.673Z,0
2017-09-27T02:26:41.338Z,0
2017-09-27T02:27:41.641Z,0
2017-09-27T02:28:40.989Z,0
2017-09-27T02:29:41.342Z,0
2017-09-27T02:30:41.283Z,0
2017-09-27T02:31:40.944Z,0
2017-09-27T02:32:41.251Z,0
2017-09-27T02:33:40.934Z,0
2017-09-27T02:34:41.198Z,0
2017-09-27T02:35:41.192Z,0
2017-09-27T02:36:41.490Z,0
2017-09-27T02:37:40.872Z,0
2017-09-27T02:38:40.842Z,0
2017-09-27T02:39:41.430Z,0
2017-09-27T02:40:41.150Z,0
2017-09-27T02:41:41.122Z,0
2017-09-27T02:42:40.783Z,0
2017-09-27T02:43:41.050Z,0
2017-09-27T02:44:40.729Z,0
2017-09-27T02:45:41.025Z,0
2017-09-27T02:46:41.024Z,0
2017-09-27T02:47:40.972Z,0
2017-09-27T02:48:40.954Z,0
2017-09-27T02:49:40.939Z,0
2017-09-27T02:50:41.214Z,0
2017-09-27T02:51:40.703Z,0
2017-09-27T02:52:41.183Z,0
2017-09-27T02:53:40.872Z,0
2017-09-27T02:54:41.162Z,0
2017-09-27T02:55:40.604Z,0
2017-09-27T02:56:40.837Z,0
2017-09-27T02:57:40.789Z,0
2017-09-27T02:58:40.469Z,0
2017-09-27T02:59:41.081Z,0
2017-09-27T03:00:40.741Z,0
2017-09-27T03:01:40.732Z,0
2017-09-27T03:02:40.691Z,0
2017-09-27T03:03:41.009Z,0
2017-09-27T03:04:40.987Z,0
2017-09-27T03:05:40.972Z,0
2017-09-27T03:06:40.319Z,0
2017-09-27T03:07:40.928Z,0
2017-09-27T03:08:40.610Z,0
2017-09-27T03:09:40.885Z,0
2017-09-27T03:10:40.911Z,0
2017-09-27T03:11:40.841Z,0
2017-09-27T03:12:40.532Z,0
2017-09-27T03:13:40.817Z,0
2017-09-27T03:14:40.501Z,0
2017-09-27T03:15:40.782Z,0
2017-09-27T03:16:40.779Z,0
2017-09-27T03:17:40.761Z,0
2017-09-27T03:18:40.728Z,0
2017-09-27T03:19:40.404Z,0
2017-09-27T03:20:40.691Z,0
2017-09-27T03:21:40.694Z,0
2017-09-27T03:22:40.661Z,0
2017-09-27T03:23:40.331Z,0
2017-09-27T03:24:40.325Z,0
2017-09-27T03:25:40.610Z,0
2017-09-27T03:26:40.270Z,0
2017-09-27T03:27:40.244Z,0
2017-09-27T03:28:40.550Z,0
2017-09-27T03:29:40.220Z,0
2017-09-27T03:30:40.221Z,0
2017-09-27T03:31:40.183Z,0
2017-09-27T03:32:40.474Z,0
2017-09-27T03:33:40.140Z,0
2017-09-27T03:34:40.140Z,0
2017-09-27T03:35:40.120Z,0
2017-09-27T03:36:40.408Z,0
2017-09-27T03:37:40.400Z,0
2017-09-27T03:38:40.371Z,0
2017-09-27T03:39:40.350Z,0
2017-09-27T03:40:40.025Z,0
2017-09-27T03:41:40.020Z,0
2017-09-27T03:42:40.302Z,0
2017-09-27T03:43:40.300Z,0
2017-09-27T03:44:39.680Z,0
2017-09-27T03:45:40.251Z,0
2017-09-27T03:46:39.349Z,0
2017-09-27T03:47:39.583Z,0
2017-09-27T03:48:39.580Z,0
2017-09-27T03:49:39.879Z,0
2017-09-27T03:50:40.154Z,0
2017-09-27T03:51:39.834Z,0
2017-09-27T03:52:39.502Z,0
2017-09-27T03:53:39.487Z,0
2017-09-27T03:54:39.789Z,0
2017-09-27T03:55:40.063Z,0
2017-09-27T03:56:40.059Z,0
2017-09-27T03:57:39.722Z,0
2017-09-27T03:58:40.030Z,0
2017-09-27T03:59:39.999Z,0
2017-09-27T04:00:39.357Z,0
2017-09-27T04:01:39.642Z,0
2017-09-27T04:02:39.930Z,0
2017-09-27T04:03:39.628Z,0
2017-09-27T04:04:39.610Z,0
2017-09-27T04:05:39.586Z,0
2017-09-27T04:06:39.554Z,0
2017-09-27T04:07:39.540Z,0
2017-09-27T04:08:39.840Z,0
2017-09-27T04:09:39.554Z,0
2017-09-27T04:10:39.789Z,0
2017-09-27T04:11:39.464Z,0
2017-09-27T04:12:39.149Z,0
2017-09-27T04:13:39.492Z,0
2017-09-27T04:14:39.742Z,0
2017-09-27T04:15:39.461Z,0
2017-09-27T04:16:39.418Z,0
2017-09-27T04:17:39.370Z,0
2017-09-27T04:18:39.659Z,0
2017-09-27T04:19:39.376Z,0
2017-09-27T04:20:39.620Z,0
2017-09-27T04:21:39.002Z,0
2017-09-27T04:22:39.280Z,0
2017-09-27T04:23:39.570Z,0
2017-09-27T04:24:39.260Z,0
2017-09-27T04:25:38.604Z,0
2017-09-27T04:26:39.495Z,0
2017-09-27T04:27:38.888Z,0
2017-09-27T04:28:39.228Z,0
2017-09-27T04:29:39.464Z,0
2017-09-27T04:30:38.823Z,0
2017-09-27T04:31:38.513Z,0
2017-09-27T04:32:39.148Z,0
2017-09-27T04:33:39.129Z,0
2017-09-27T04:34:39.119Z,0
2017-09-27T04:35:39.059Z,0
2017-09-27T04:36:39.108Z,0
2017-09-27T04:37:39.435Z,0
2017-09-27T04:38:39.349Z,0
2017-09-27T04:39:38.971Z,0
2017-09-27T04:40:38.658Z,0
2017-09-27T04:41:38.619Z,0
2017-09-27T04:42:38.940Z,0
2017-09-27T04:43:38.602Z,0
2017-09-27T04:44:38.572Z,0
2017-09-27T04:45:39.289Z,0
2017-09-27T04:46:38.849Z,0
2017-09-27T04:47:38.526Z,0
2017-09-27T04:48:39.261Z,0
2017-09-27T04:49:39.120Z,0
2017-09-27T04:50:38.879Z,0
2017-09-27T04:51:39.059Z,0
2017-09-27T04:52:39.058Z,0
2017-09-27T04:53:38.449Z,0
2017-09-27T04:54:39.138Z,4
2017-09-27T04:55:38.706Z,4
2017-09-27T04:56:38.667Z,4
2017-09-27T04:57:38.331Z,4
2017-09-27T04:58:38.322Z,4
2017-09-27T04:59:38.310Z,4
2017-09-27T05:00:39.013Z,0
2017-09-27T05:01:38.569Z,0
2017-09-27T05:02:38.578Z,4
2017-09-27T05:03:38.541Z,4
2017-09-27T05:04:38.561Z,4
2017-09-27T05:05:38.510Z,4
2017-09-27T05:06:38.485Z,4
2017-09-27T05:07:38.469Z,8
2017-09-27T05:08:38.452Z,4
2017-09-27T05:09:38.761Z,4
2017-09-27T05:10:38.469Z,8
2017-09-27T05:11:38.402Z,8
2017-09-27T05:12:38.402Z,8
2017-09-27T05:13:38.358Z,12
2017-09-27T05:14:38.340Z,16
2017-09-27T05:15:38.344Z,12
2017-09-27T05:16:38.324Z,20
2017-09-27T05:17:38.319Z,20
2017-09-27T05:18:37.992Z,20
2017-09-27T05:19:38.549Z,24
2017-09-27T05:20:38.276Z,28
2017-09-27T05:21:38.531Z,28
2017-09-27T05:22:38.552Z,32
2017-09-27T05:23:37.868Z,36
2017-09-27T05:24:38.291Z,44
2017-09-27T05:25:38.460Z,44
2017-09-27T05:26:38.559Z,48
2017-09-27T05:27:38.417Z,52
2017-09-27T05:28:38.521Z,56
2017-09-27T05:29:38.411Z,60
2017-09-27T05:30:38.157Z,68
2017-09-27T05:31:38.357Z,72
2017-09-27T05:32:38.343Z,76
2017-09-27T05:33:38.318Z,84
2017-09-27T05:34:38.312Z,92
2017-09-27T05:35:38.292Z,96
2017-09-27T05:36:38.286Z,108
2017-09-27T05:37:38.261Z,116
2017-09-27T05:38:38.289Z,120
2017-09-27T05:39:37.910Z,132
2017-09-27T05:40:37.902Z,136
2017-09-27T05:41:37.560Z,148
2017-09-27T05:42:37.940Z,148
2017-09-27T05:43:37.526Z,160
2017-09-27T05:44:37.830Z,168
2017-09-27T05:45:38.108Z,172
2017-09-27T05:46:38.125Z,176
2017-09-27T05:47:38.111Z,180
2017-09-27T05:48:38.046Z,188
2017-09-27T05:49:37.780Z,200
2017-09-27T05:50:38.072Z,212
2017-09-27T05:51:37.673Z,228
2017-09-27T05:52:37.978Z,236
2017-09-27T05:53:37.668Z,248
2017-09-27T05:54:37.950Z,256
2017-09-27T05:55:37.629Z,268
2017-09-27T05:56:37.979Z,280
2017-09-27T05:57:37.578Z,292
2017-09-27T05:58:37.561Z,300
2017-09-27T05:59:37.870Z,304
2017-09-27T06:00:37.541Z,308
2017-09-27T06:01:37.818Z,312
2017-09-27T06:02:37.900Z,312
2017-09-27T06:03:37.879Z,320
2017-09-27T06:04:37.503Z,320
2017-09-27T06:05:37.436Z,316
2017-09-27T06:06:37.105Z,316
2017-09-27T06:07:37.394Z,324
2017-09-27T06:08:37.362Z,324
2017-09-27T06:09:37.768Z,332
2017-09-27T06:10:37.019Z,340
2017-09-27T06:11:37.328Z,344
2017-09-27T06:12:36.998Z,348
2017-09-27T06:13:37.606Z,356
2017-09-27T06:14:37.670Z,360
2017-09-27T06:15:37.612Z,368
2017-09-27T06:16:37.227Z,384
2017-09-27T06:17:37.220Z,396
2017-09-27T06:18:36.910Z,408
2017-09-27T06:19:37.194Z,428
2017-09-27T06:20:36.840Z,444
2017-09-27T06:21:36.886Z,460
2017-09-27T06:22:37.118Z,476
2017-09-27T06:23:36.795Z,488
2017-09-27T06:24:37.466Z,504
2017-09-27T06:25:36.781Z,508
2017-09-27T06:26:37.409Z,516
2017-09-27T06:27:37.410Z,524
2017-09-27T06:28:37.368Z,532
2017-09-27T06:29:36.699Z,540
2017-09-27T06:30:37.292Z,540
2017-09-27T06:31:36.988Z,544
2017-09-27T06:32:37.309Z,548
2017-09-27T06:33:37.299Z,552
2017-09-27T06:34:36.936Z,556
2017-09-27T06:35:36.897Z,560
2017-09-27T06:36:36.912Z,560
2017-09-27T06:37:36.869Z,564
2017-09-27T06:38:37.218Z,564
2017-09-27T06:39:36.861Z,564
2017-09-27T06:40:36.799Z,568
2017-09-27T06:41:37.127Z,568
2017-09-27T06:42:36.768Z,572
2017-09-27T06:43:36.749Z,576
2017-09-27T06:44:36.733Z,588
2017-09-27T06:45:36.406Z,596
2017-09-27T06:46:37.018Z,612
2017-09-27T06:47:36.377Z,632
2017-09-27T06:48:36.650Z,648
2017-09-27T06:49:36.328Z,664
2017-09-27T06:50:36.317Z,684
2017-09-27T06:51:36.911Z,704
2017-09-27T06:52:36.928Z,724
2017-09-27T06:53:36.568Z,744
2017-09-27T06:54:36.857Z,768
2017-09-27T06:55:36.211Z,788
2017-09-27T06:56:36.813Z,812
2017-09-27T06:57:36.828Z,836
2017-09-27T06:58:36.478Z,856
2017-09-27T06:59:36.840Z,884
2017-09-27T07:00:36.125Z,908
2017-09-27T07:01:36.438Z,928
2017-09-27T07:02:36.417Z,960
2017-09-27T07:03:36.712Z,988
2017-09-27T07:04:36.070Z,1008
2017-09-27T07:05:36.349Z,1024
2017-09-27T07:06:36.030Z,1040
2017-09-27T07:07:36.319Z,1052
2017-09-27T07:08:36.052Z,1056
2017-09-27T07:09:36.291Z,1056
2017-09-27T07:10:35.977Z,1052
2017-09-27T07:11:36.261Z,1044
2017-09-27T07:12:36.552Z,1036
2017-09-27T07:13:36.559Z,1036
2017-09-27T07:14:36.210Z,1032
2017-09-27T07:15:36.487Z,1028
2017-09-27T07:16:36.490Z,1032
2017-09-27T07:17:36.139Z,1040
2017-09-27T07:18:36.126Z,1044
2017-09-27T07:19:36.119Z,1052
2017-09-27T07:20:36.102Z,1056
2017-09-27T07:21:35.524Z,1052
2017-09-27T07:22:36.351Z,1044
2017-09-27T07:23:36.431Z,1044
2017-09-27T07:24:36.022Z,1040
2017-09-27T07:25:36.011Z,1036
2017-09-27T07:26:35.666Z,1036
2017-09-27T07:27:35.975Z,1048
2017-09-27T07:28:35.940Z,1068
2017-09-27T07:29:35.931Z,1084
2017-09-27T07:30:35.917Z,1092
2017-09-27T07:31:35.899Z,1092
2017-09-27T07:32:35.907Z,1092
2017-09-27T07:33:36.182Z,1096
2017-09-27T07:34:36.140Z,1116
2017-09-27T07:35:36.140Z,1140
2017-09-27T07:36:36.112Z,1164
2017-09-27T07:37:35.790Z,1200
2017-09-27T07:38:36.101Z,1248
2017-09-27T07:39:36.050Z,1312
2017-09-27T07:40:36.051Z,1360
2017-09-27T07:41:36.020Z,1428
2017-09-27T07:42:36.021Z,1472
2017-09-27T07:43:35.980Z,1504
2017-09-27T07:44:35.989Z,1520
2017-09-27T07:45:35.950Z,1556
2017-09-27T07:46:35.655Z,1576
2017-09-27T07:47:35.928Z,1604
2017-09-27T07:48:35.913Z,1644
2017-09-27T07:49:35.895Z,1692
2017-09-27T07:50:35.883Z,1748
2017-09-27T07:51:35.855Z,1816
2017-09-27T07:52:35.841Z,1864
2017-09-27T07:53:35.846Z,1888
2017-09-27T07:54:35.472Z,1888
2017-09-27T07:55:35.455Z,1880
2017-09-27T07:56:35.447Z,1888
2017-09-27T07:57:35.744Z,1900
2017-09-27T07:58:35.409Z,1912
2017-09-27T07:59:35.388Z,1916
2017-09-27T08:00:35.059Z,1948
2017-09-27T08:01:35.350Z,1988
2017-09-27T08:02:35.041Z,2040
2017-09-27T08:03:35.320Z,2108
2017-09-27T08:04:34.679Z,2176
2017-09-27T08:05:35.290Z,2248
2017-09-27T08:06:35.586Z,2316
2017-09-27T08:07:34.950Z,2396
2017-09-27T08:08:35.229Z,2488
2017-09-27T08:09:35.519Z,2580
2017-09-27T08:10:35.520Z,2636
2017-09-27T08:11:35.217Z,2664
2017-09-27T08:12:35.480Z,2680
2017-09-27T08:13:35.461Z,2688
2017-09-27T08:14:35.122Z,2688
2017-09-27T08:15:35.422Z,2680
2017-09-27T08:16:35.406Z,2728
2017-09-27T08:17:35.078Z,2768
2017-09-27T08:18:35.045Z,2800
2017-09-27T08:19:34.747Z,2824
2017-09-27T08:20:34.719Z,2868
2017-09-27T08:21:35.001Z,2928
2017-09-27T08:22:34.980Z,3004
2017-09-27T08:23:34.973Z,3076
2017-09-27T08:24:35.250Z,3124
2017-09-27T08:25:35.251Z,3156
2017-09-27T08:26:34.925Z,3164
2017-09-27T08:27:35.221Z,3140
2017-09-27T08:28:35.192Z,3200
2017-09-27T08:29:34.850Z,3236
2017-09-27T08:30:34.531Z,3296
2017-09-27T08:31:34.841Z,3352
2017-09-27T08:32:35.141Z,3388
2017-09-27T08:33:34.780Z,3448
2017-09-27T08:34:34.778Z,3520
2017-09-27T08:35:35.057Z,3620
2017-09-27T08:36:35.053Z,3752
2017-09-27T08:37:35.032Z,3904
2017-09-27T08:38:35.022Z,4076
2017-09-27T08:39:35.010Z,4304
2017-09-27T08:40:34.693Z,4572
2017-09-27T08:41:34.970Z,4872
2017-09-27T08:42:34.962Z,5240
2017-09-27T08:43:34.624Z,5676
2017-09-27T08:44:34.610Z,6192
2017-09-27T08:45:33.976Z,6812
2017-09-27T08:46:34.573Z,7532
2017-09-27T08:47:34.881Z,8456
2017-09-27T08:48:34.543Z,9444
2017-09-27T08:49:34.608Z,10256
2017-09-27T08:50:34.811Z,11012
2017-09-27T08:51:34.501Z,12024
2017-09-27T08:52:34.478Z,13292
2017-09-27T08:53:34.463Z,14920
2017-09-27T08:54:34.471Z,18880
2017-09-27T08:55:34.422Z,31456
2017-09-27T08:56:34.417Z,38560
2017-09-27T08:57:34.691Z,37312
2017-09-27T08:58:34.701Z,28608
2017-09-27T08:59:34.045Z,32032
2017-09-27T09:00:34.353Z,40864
2017-09-27T09:01:34.334Z,30240
2017-09-27T09:02:34.353Z,29696
2017-09-27T09:03:34.313Z,23520
2017-09-27T09:04:34.611Z,25664
2017-09-27T09:05:34.615Z,37504
2017-09-27T09:06:34.244Z,33472
2017-09-27T09:07:34.541Z,48512
2017-09-27T09:08:34.225Z,25536
2017-09-27T09:09:34.541Z,37504
2017-09-27T09:10:34.547Z,46048
2017-09-27T09:11:34.198Z,53344
2017-09-27T09:12:34.181Z,54464
2017-09-27T09:13:33.858Z,33600
2017-09-27T09:14:34.481Z,44416
2017-09-27T09:15:34.258Z,37888
2017-09-27T09:16:34.460Z,42944
2017-09-27T09:17:33.623Z,32352
2017-09-27T09:18:34.137Z,45824
2017-09-27T09:19:33.814Z,46368
2017-09-27T09:20:33.789Z,42976
2017-09-27T09:21:34.172Z,37312
2017-09-27T09:22:34.105Z,46176
2017-09-27T09:23:34.398Z,45792
2017-09-27T09:24:34.398Z,43744
2017-09-27T09:25:34.071Z,43776
2017-09-27T09:26:34.540Z,46848
2017-09-27T09:27:34.412Z,44992
2017-09-27T09:28:33.854Z,48704
2017-09-27T09:29:34.074Z,46432
2017-09-27T09:30:34.077Z,44960
2017-09-27T09:31:34.019Z,45824
2017-09-27T09:32:34.340Z,45504
2017-09-27T09:33:34.309Z,46016
2017-09-27T09:34:34.012Z,44928
2017-09-27T09:35:34.332Z,42496
2017-09-27T09:36:33.686Z,34400
2017-09-27T09:37:34.308Z,29056
2017-09-27T09:38:33.670Z,30272
2017-09-27T09:39:34.267Z,34304
2017-09-27T09:40:34.271Z,22688
2017-09-27T09:41:34.269Z,20544
2017-09-27T09:42:33.617Z,18240
2017-09-27T09:43:33.938Z,23296
2017-09-27T09:44:33.939Z,25664
2017-09-27T09:45:33.917Z,19360
2017-09-27T09:46:34.208Z,17440
2017-09-27T09:47:33.611Z,17824
2017-09-27T09:48:33.930Z,17728
2017-09-27T09:49:33.579Z,23328
2017-09-27T09:50:34.199Z,29024
2017-09-27T09:51:33.887Z,34208
2017-09-27T09:52:33.922Z,21504
2017-09-27T09:53:34.153Z,34048
2017-09-27T09:54:33.518Z,24288
2017-09-27T09:55:33.840Z,43840
2017-09-27T09:56:33.525Z,41824
2017-09-27T09:57:33.810Z,39584
2017-09-27T09:58:34.110Z,37952
2017-09-27T09:59:33.821Z,37536
2017-09-27T10:00:33.826Z,38848
2017-09-27T10:01:33.896Z,37856
2017-09-27T10:02:33.790Z,36832
2017-09-27T10:03:33.772Z,36416
2017-09-27T10:04:33.793Z,35136
2017-09-27T10:05:33.510Z,31104
2017-09-27T10:06:33.591Z,26048
2017-09-27T10:07:33.772Z,28320
2017-09-27T10:08:33.719Z,21792
2017-09-27T10:09:33.723Z,16768
2017-09-27T10:10:33.701Z,16448
2017-09-27T10:11:33.741Z,17248
2017-09-27T10:12:33.690Z,20448
2017-09-27T10:13:33.750Z,21888
2017-09-27T10:14:33.684Z,26048
2017-09-27T10:15:33.682Z,25024
2017-09-27T10:16:34.013Z,26464
2017-09-27T10:17:33.641Z,27072
2017-09-27T10:18:33.651Z,21376
2017-09-27T10:19:33.927Z,26592
2017-09-27T10:20:33.979Z,15732
2017-09-27T10:21:33.658Z,18368
2017-09-27T10:22:33.640Z,18112
2017-09-27T10:23:33.922Z,14280
2017-09-27T10:24:33.896Z,17312
2017-09-27T10:25:33.607Z,13696
2017-09-27T10:26:33.573Z,15600
2017-09-27T10:27:33.573Z,15196
2017-09-27T10:28:33.542Z,13432
2017-09-27T10:29:33.850Z,17088
2017-09-27T10:30:33.522Z,13636
2017-09-27T10:31:33.529Z,14220
2017-09-27T10:32:33.493Z,19200
2017-09-27T10:33:33.802Z,14700
2017-09-27T10:34:33.800Z,13948
2017-09-27T10:35:33.780Z,19168
2017-09-27T10:36:33.474Z,15684
2017-09-27T10:37:33.477Z,19648
2017-09-27T10:38:33.763Z,22912
2017-09-27T10:39:33.454Z,29472
2017-09-27T10:40:33.432Z,36576
2017-09-27T10:41:33.740Z,26272
2017-09-27T10:42:33.723Z,20064
2017-09-27T10:43:33.729Z,19552
2017-09-27T10:44:33.702Z,19264
2017-09-27T10:45:33.403Z,19488
2017-09-27T10:46:33.397Z,19872
2017-09-27T10:47:33.807Z,20736
2017-09-27T10:48:33.048Z,21120
2017-09-27T10:49:33.663Z,20736
2017-09-27T10:50:33.671Z,21088
2017-09-27T10:51:33.761Z,22432
2017-09-27T10:52:33.663Z,24192
2017-09-27T10:53:33.659Z,24736
2017-09-27T10:54:33.697Z,19840
2017-09-27T10:55:33.621Z,15004
2017-09-27T10:56:33.275Z,14788
2017-09-27T10:57:33.614Z,14908
2017-09-27T10:58:33.647Z,14900
2017-09-27T10:59:33.623Z,14532
2017-09-27T11:00:33.588Z,14320
2017-09-27T11:01:33.662Z,11908
2017-09-27T11:02:33.614Z,13016
2017-09-27T11:03:32.946Z,13300
2017-09-27T11:04:33.620Z,13636
2017-09-27T11:05:33.609Z,13616
2017-09-27T11:06:33.567Z,13568
2017-09-27T11:07:33.554Z,13408
2017-09-27T11:08:33.502Z,13304
2017-09-27T11:09:33.502Z,13236
2017-09-27T11:10:33.520Z,13204
2017-09-27T11:11:33.167Z,13164
2017-09-27T11:12:33.203Z,13084
2017-09-27T11:13:33.151Z,12920
2017-09-27T11:14:32.818Z,12752
2017-09-27T11:15:33.447Z,11960
2017-09-27T11:16:33.100Z,9592
2017-09-27T11:17:33.425Z,11900
2017-09-27T11:18:33.403Z,12652
2017-09-27T11:19:33.082Z,12824
2017-09-27T11:20:33.403Z,12700
2017-09-27T11:21:33.073Z,12620
2017-09-27T11:22:33.070Z,12516
2017-09-27T11:23:33.071Z,12476
2017-09-27T11:24:33.055Z,12376
2017-09-27T11:25:33.040Z,12248
2017-09-27T11:26:33.021Z,12156
2017-09-27T11:27:33.330Z,12020
2017-09-27T11:28:33.321Z,12032
2017-09-27T11:29:33.011Z,12200
2017-09-27T11:30:32.674Z,12256
2017-09-27T11:31:32.969Z,12088
2017-09-27T11:32:32.967Z,12292
2017-09-27T11:33:33.269Z,12276
2017-09-27T11:34:33.279Z,12076
2017-09-27T11:35:32.936Z,11884
2017-09-27T11:36:32.704Z,11892
2017-09-27T11:37:33.271Z,11844
2017-09-27T11:38:33.348Z,12140
2017-09-27T11:39:33.318Z,12216
2017-09-27T11:40:33.378Z,12456
2017-09-27T11:41:32.912Z,12560
2017-09-27T11:42:33.219Z,12560
2017-09-27T11:43:32.591Z,12380
2017-09-27T11:44:32.961Z,11840
2017-09-27T11:45:33.181Z,11600
2017-09-27T11:46:33.156Z,11736
2017-09-27T11:47:32.838Z,11908
2017-09-27T11:48:33.236Z,11868
2017-09-27T11:49:33.878Z,11932
2017-09-27T11:50:32.869Z,11880
2017-09-27T11:51:32.808Z,11748
2017-09-27T11:52:33.120Z,11648
2017-09-27T11:53:33.190Z,11580
2017-09-27T11:54:33.211Z,11780
2017-09-27T11:55:33.099Z,11732
2017-09-27T11:56:32.750Z,11672
2017-09-27T11:57:33.090Z,11492
2017-09-27T11:58:32.756Z,11176
2017-09-27T11:59:32.756Z,11372
2017-09-27T12:00:32.115Z,11444
2017-09-27T12:01:32.405Z,11368
2017-09-27T12:02:32.698Z,11032
2017-09-27T12:03:32.402Z,11856
2017-09-27T12:04:32.388Z,11928
2017-09-27T12:05:32.678Z,11580
2017-09-27T12:06:32.671Z,11684
2017-09-27T12:07:32.679Z,11612
2017-09-27T12:08:32.361Z,11388
2017-09-27T12:09:32.646Z,11144
2017-09-27T12:10:32.646Z,10932
2017-09-27T12:11:32.628Z,10804
2017-09-27T12:12:32.942Z,10704
2017-09-27T12:13:32.318Z,10732
2017-09-27T12:14:32.917Z,10696
2017-09-27T12:15:32.308Z,10372
2017-09-27T12:16:32.611Z,10484
2017-09-27T12:17:32.898Z,10444
2017-09-27T12:18:32.901Z,10476
2017-09-27T12:19:32.571Z,10328
2017-09-27T12:20:32.238Z,10512
2017-09-27T12:21:32.887Z,10400
2017-09-27T12:22:32.958Z,10284
2017-09-27T12:23:32.318Z,10252
2017-09-27T12:24:32.209Z,10316
2017-09-27T12:25:32.206Z,10348
2017-09-27T12:26:32.607Z,10376
2017-09-27T12:27:32.511Z,10328
2017-09-27T12:28:32.487Z,10300
2017-09-27T12:29:32.525Z,10180
2017-09-27T12:30:32.497Z,10128
2017-09-27T12:31:32.517Z,10176
2017-09-27T12:32:32.145Z,10216
2017-09-27T12:33:32.141Z,10192
2017-09-27T12:34:32.433Z,10232
2017-09-27T12:35:32.449Z,10292
2017-09-27T12:36:32.789Z,10256
2017-09-27T12:37:32.786Z,10184
2017-09-27T12:38:32.742Z,9992
2017-09-27T12:39:32.739Z,9848
2017-09-27T12:40:32.415Z,9584
2017-09-27T12:41:32.709Z,9436
2017-09-27T12:42:32.780Z,9436
2017-09-27T12:43:32.737Z,9496
2017-09-27T12:44:32.048Z,9208
2017-09-27T12:45:32.030Z,9364
2017-09-27T12:46:32.639Z,8584
2017-09-27T12:47:32.626Z,8776
2017-09-27T12:48:32.626Z,8884
2017-09-27T12:49:32.607Z,7640
2017-09-27T12:50:32.609Z,7800
2017-09-27T12:51:32.311Z,7852
2017-09-27T12:52:32.583Z,6604
2017-09-27T12:53:32.583Z,6880
2017-09-27T12:54:32.249Z,6284
2017-09-27T12:55:32.587Z,5888
2017-09-27T12:56:32.548Z,6048
2017-09-27T12:57:32.240Z,7296
2017-09-27T12:58:32.541Z,8188
2017-09-27T12:59:32.543Z,6452
2017-09-27T13:00:32.281Z,7792
2017-09-27T13:01:32.288Z,8856
2017-09-27T13:02:31.557Z,9284
2017-09-27T13:03:32.168Z,7756
2017-09-27T13:04:32.488Z,8496
2017-09-27T13:05:32.478Z,9328
2017-09-27T13:06:32.569Z,9444
2017-09-27T13:07:32.198Z,8336
2017-09-27T13:08:32.460Z,8304
2017-09-27T13:09:32.524Z,7964
2017-09-27T13:10:32.510Z,7564
2017-09-27T13:11:32.440Z,7380
2017-09-27T13:12:31.767Z,5056
2017-09-27T13:13:32.388Z,4872
2017-09-27T13:14:32.397Z,5092
2017-09-27T13:15:31.757Z,5820
2017-09-27T13:16:32.119Z,5636
2017-09-27T13:17:32.110Z,5644
2017-09-27T13:18:32.349Z,5804
2017-09-27T13:19:32.408Z,5436
2017-09-27T13:20:32.320Z,6104
2017-09-27T13:21:32.059Z,5664
2017-09-27T13:22:32.008Z,5808
2017-09-27T13:23:32.289Z,5000
2017-09-27T13:24:32.348Z,4844
2017-09-27T13:25:32.008Z,5284
2017-09-27T13:26:31.959Z,6632
2017-09-27T13:27:31.695Z,7552
2017-09-27T13:28:32.247Z,7220
2017-09-27T13:29:32.241Z,4340
2017-09-27T13:30:32.221Z,3888
2017-09-27T13:31:32.208Z,3880
2017-09-27T13:32:32.205Z,3948
2017-09-27T13:33:31.883Z,4032
2017-09-27T13:34:32.199Z,4052
2017-09-27T13:35:32.179Z,4120
2017-09-27T13:36:31.858Z,3844
2017-09-27T13:37:31.846Z,3704
2017-09-27T13:38:32.162Z,3776
2017-09-27T13:39:32.151Z,3956
2017-09-27T13:40:32.129Z,5220
2017-09-27T13:41:32.118Z,4308
2017-09-27T13:42:32.090Z,7140
2017-09-27T13:43:31.153Z,4144
2017-09-27T13:44:31.867Z,4068
2017-09-27T13:45:32.059Z,4048
2017-09-27T13:46:32.052Z,3988